New Germany, Canada
Current Conditions -  °F | °C
As of 4:13 PM on Tuesday 27 Jan 2015 (Local Time) from CYZX Reporting Station
Light Snow Light Snow  
Wind Chill:   Ceiling: 2000
Heat Index: 23°   Visibility: 5mi
Dew Point: 19°   Wind: 30mph
Humidity: 86%   Direction: 50°NE
Pressure: 29.55"   Gusts: 46mph
Location:  44.55°N, 64.72°W
Report Text: CYZX 272013Z 05026G40KT 5SM -SN BLSN OVC020 M05/M07 A2955 RMK SC8 VIS VRB 3-7 WNDY HILL 07026G42KT SLP010
Loading
Personal Weather Stations






























Interactive Weather Map New forecast layout! Learn more

10-Day Weather Forecast

Advertisements
Track Severe Weather on mobile